Time;durP1;ratioP1;P1;durP2;ratioP2;P2;SDS_P1;SDS_P2;PMS_P1;PMS_P2;Temp;Humidity;BMP_temperature;BMP_pressure;BME280_temperature;BME280_humidity;BME280_pressure;Samples;Min_cycle;Max_cycle;Signal;HPM_P1;HPM_P2
2023/07/14 00:01:57;;;;;;;9.98;5.28;;;;;;;19.11;96.18;101631.34;5114028;28;20063;-63
2023/07/14 00:04:31;;;;;;;8.75;5.05;;;;;;;19.06;96.65;101627.88;5106659;28;20438;-62
2023/07/14 00:07:00;;;;;;;9.23;4.97;;;;;;;19.03;97.06;101628.50;5087526;28;20044;-63
2023/07/14 00:09:30;;;;;;;7.88;4.47;;;;;;;19.03;97.20;101634.03;5114052;28;20114;-63
2023/07/14 00:11:58;;;;;;;9.27;5.05;;;;;;;19.06;97.16;101628.69;5129592;28;20085;-62
2023/07/14 00:14:26;;;;;;;8.60;5.25;;;;;;;19.06;96.73;101625.94;5123259;28;20772;-64
2023/07/14 00:16:54;;;;;;;8.45;4.75;;;;;;;19.02;96.67;101627.66;5118583;28;20510;-62
2023/07/14 00:19:24;;;;;;;8.73;4.55;;;;;;;18.99;97.44;101633.00;5121225;28;20088;-59
2023/07/14 00:21:51;;;;;;;9.60;4.72;;;;;;;19.00;97.57;101623.56;5120967;28;20130;-63
2023/07/14 00:24:23;;;;;;;8.25;4.25;;;;;;;19.05;97.13;101618.78;5120999;28;20111;-64
2023/07/14 00:26:57;;;;;;;9.77;5.90;;;;;;;19.07;97.23;101619.28;5097683;28;20054;-65
2023/07/14 00:29:38;;;;;;;8.48;4.88;;;;;;;19.09;97.11;101621.75;5102291;28;20548;-63
2023/07/14 00:32:20;;;;;;;13.70;5.28;;;;;;;19.09;96.72;101618.97;5113173;28;20052;-63
2023/07/14 00:34:48;;;;;;;9.38;4.68;;;;;;;19.09;96.73;101619.78;5090671;28;20394;-63
2023/07/14 00:37:16;;;;;;;8.38;4.13;;;;;;;19.09;96.59;101621.75;5092484;28;20553;-63
2023/07/14 00:39:44;;;;;;;9.63;5.43;;;;;;;19.09;96.59;101611.50;5092157;28;20051;-62
2023/07/14 00:42:14;;;;;;;11.35;4.82;;;;;;;19.10;96.65;101623.38;5092414;28;20070;-62
2023/07/14 00:44:44;;;;;;;9.98;4.63;;;;;;;19.08;96.46;101618.16;5092284;28;20052;-63
2023/07/14 00:47:28;;;;;;;9.48;4.82;;;;;;;19.06;96.15;101609.34;5110571;28;20047;-64
2023/07/14 00:49:57;;;;;;;9.52;4.82;;;;;;;19.07;96.64;101612.94;5113133;28;20044;-63
2023/07/14 00:52:51;;;;;;;8.77;4.78;;;;;;;19.05;96.90;101604.13;5079559;28;20092;-62
2023/07/14 00:55:38;;;;;;;9.25;5.13;;;;;;;19.03;97.28;101607.22;5110668;28;20406;-63
2023/07/14 00:58:21;;;;;;;10.15;5.50;;;;;;;18.97;97.38;101608.44;5092715;28;20048;-63
2023/07/14 01:01:09;;;;;;;7.78;4.45;;;;;;;18.93;97.22;101608.22;5108566;28;20063;-63
2023/07/14 01:03:43;;;;;;;7.30;4.55;;;;;;;18.93;97.68;101610.19;5099934;28;20044;-63
2023/07/14 01:06:13;;;;;;;9.07;4.13;;;;;;;18.92;97.78;101605.75;5112932;28;20468;-63
2023/07/14 01:08:46;;;;;;;10.15;5.18;;;;;;;18.91;97.90;101607.72;5095691;28;20073;-62
2023/07/14 01:11:16;;;;;;;10.60;5.60;;;;;;;18.88;97.78;101599.22;5112550;28;20087;-62
2023/07/14 01:13:44;;;;;;;11.60;5.53;;;;;;;18.82;98.47;101601.25;5092265;28;20060;-62
2023/07/14 01:16:14;;;;;;;10.75;5.05;;;;;;;18.79;98.82;101596.34;5113681;28;20445;-63
2023/07/14 01:18:45;;;;;;;10.27;5.30;;;;;;;18.79;98.74;101592.78;5075310;28;20108;-62
2023/07/14 01:21:14;;;;;;;9.50;4.85;;;;;;;18.79;98.46;101595.53;5076670;28;20060;-62
2023/07/14 01:23:51;;;;;;;8.95;5.03;;;;;;;18.79;98.49;101595.53;5111716;28;20104;-64
2023/07/14 01:26:37;;;;;;;8.60;4.70;;;;;;;18.79;98.12;101595.53;5095015;28;20051;-62
2023/07/14 01:29:09;;;;;;;9.00;5.13;;;;;;;18.79;98.20;101590.81;5095169;28;20044;-63
2023/07/14 01:31:37;;;;;;;9.70;5.30;;;;;;;18.79;98.14;101590.03;5115137;28;20104;-62
2023/07/14 01:34:04;;;;;;;10.35;5.68;;;;;;;18.79;98.02;101590.03;5080119;28;20427;-62
2023/07/14 01:36:33;;;;;;;9.82;6.07;;;;;;;18.80;97.74;101580.59;5079343;28;20043;-64
2023/07/14 01:39:03;;;;;;;9.85;5.38;;;;;;;18.77;97.23;101579.25;5081760;28;20115;-63
2023/07/14 01:41:32;;;;;;;10.30;5.45;;;;;;;18.68;98.04;101578.28;5117192;28;20480;-64
2023/07/14 01:44:03;;;;;;;7.97;4.72;;;;;;;18.65;98.35;101576.97;5117413;28;20047;-62
2023/07/14 01:46:31;;;;;;;11.15;5.30;;;;;;;18.62;98.21;101579.53;5080652;28;20040;-62
2023/07/14 01:48:59;;;;;;;8.02;4.35;;;;;;;18.57;98.61;101582.34;5115842;28;20092;-63
2023/07/14 01:51:30;;;;;;;9.35;4.78;;;;;;;18.55;99.16;101585.44;5095367;28;20048;-63
2023/07/14 01:54:23;;;;;;;8.35;4.78;;;;;;;18.59;98.86;101586.47;5078222;28;20044;-63
2023/07/14 01:56:51;;;;;;;7.28;4.47;;;;;;;18.59;98.92;101580.97;5089935;28;20047;-62
2023/07/14 01:59:22;;;;;;;11.75;5.93;;;;;;;18.58;99.11;101573.78;5098598;28;20057;-63
2023/07/14 02:01:52;;;;;;;11.02;5.22;;;;;;;18.56;99.30;101576.03;5067987;28;20062;-63
2023/07/14 02:04:25;;;;;;;9.48;4.70;;;;;;;18.58;99.12;101576.53;5116403;28;20051;-62
2023/07/14 02:06:56;;;;;;;9.52;5.05;;;;;;;18.62;99.17;101574.81;5114515;28;20047;-64
2023/07/14 02:09:28;;;;;;;7.80;4.57;;;;;;;18.62;99.09;101574.00;5080749;28;20088;-61
2023/07/14 02:11:59;;;;;;;9.38;5.25;;;;;;;18.63;98.83;101570.94;5082414;28;20047;-63
2023/07/14 02:14:30;;;;;;;9.23;4.82;;;;;;;18.62;98.74;101569.31;5097823;28;20051;-64
2023/07/14 02:17:05;;;;;;;12.48;5.53;;;;;;;18.60;98.77;101571.53;5096326;28;20070;-62
2023/07/14 02:19:33;;;;;;;10.00;5.28;;;;;;;18.57;98.23;101569.41;5081506;28;20043;-63
2023/07/14 02:22:02;;;;;;;8.45;4.78;;;;;;;18.52;98.60;101569.50;5082019;28;20099;-62
2023/07/14 02:24:30;;;;;;;9.90;5.53;;;;;;;18.49;98.95;101565.38;5116230;28;20056;-63
2023/07/14 02:27:11;;;;;;;7.95;4.88;;;;;;;18.51;98.92;101556.81;5080853;28;20061;-63
2023/07/14 02:29:39;;;;;;;9.40;4.85;;;;;;;18.49;98.81;101562.63;5097406;28;20411;-63
2023/07/14 02:32:09;;;;;;;10.73;4.78;;;;;;;18.48;98.15;101566.50;5115077;28;20040;-63
2023/07/14 02:34:41;;;;;;;11.27;4.80;;;;;;;18.45;98.70;101563.56;5098156;28;20074;-63
2023/07/14 02:37:50;;;;;;;9.23;5.10;;;;;;;18.44;98.15;101562.72;5098810;28;20046;-63
2023/07/14 02:40:21;;;;;;;8.93;4.70;;;;;;;18.42;98.29;101553.09;5083849;28;20031;-64
2023/07/14 02:42:52;;;;;;;7.82;4.88;;;;;;;18.41;98.59;101557.81;5097410;28;20505;-62
2023/07/14 02:45:20;;;;;;;8.00;4.78;;;;;;;18.44;98.25;101556.38;5097477;28;20372;-62
2023/07/14 02:47:48;;;;;;;9.35;4.72;;;;;;;18.47;98.22;101562.13;5080747;28;20051;-62
2023/07/14 02:50:16;;;;;;;6.07;3.97;;;;;;;18.50;97.53;101560.69;5115198;28;20035;-63
2023/07/14 02:52:44;;;;;;;10.15;4.28;;;;;;;18.48;97.33;101563.75;5115735;28;20104;-63
2023/07/14 02:55:13;;;;;;;8.10;4.13;;;;;;;18.46;97.48;101563.22;5080474;28;20043;-62
2023/07/14 02:57:41;;;;;;;9.43;4.75;;;;;;;18.47;97.42;101559.38;5116221;28;20377;-62
2023/07/14 03:00:10;;;;;;;9.25;4.45;;;;;;;18.48;97.27;101560.19;5092212;28;20096;-63
2023/07/14 03:02:38;;;;;;;9.13;4.47;;;;;;;18.46;97.23;101562.41;5097924;28;20059;-63
2023/07/14 03:05:07;;;;;;;8.65;4.50;;;;;;;18.46;97.49;101559.66;5114852;28;20047;-62
2023/07/14 03:07:35;;;;;;;10.07;4.95;;;;;;;18.46;97.44;101554.13;5097226;28;20054;-62
2023/07/14 03:10:04;;;;;;;9.40;4.70;;;;;;;18.46;97.23;101554.13;5079826;28;20039;-63
2023/07/14 03:12:32;;;;;;;9.73;4.70;;;;;;;18.44;97.10;101554.44;5116046;28;20052;-64
2023/07/14 03:15:00;;;;;;;8.38;4.45;;;;;;;18.43;97.26;101558.31;5097790;28;20060;-63
2023/07/14 03:17:29;;;;;;;7.50;4.18;;;;;;;18.43;97.38;101554.75;5080246;28;20077;-62
2023/07/14 03:19:57;;;;;;;6.57;3.97;;;;;;;18.42;97.29;101548.38;5115388;28;20039;-62
2023/07/14 03:22:30;;;;;;;9.32;4.47;;;;;;;18.42;97.43;101544.81;5116966;28;20494;-62
2023/07/14 03:25:00;;;;;;;7.05;4.15;;;;;;;18.43;97.29;101543.72;5097296;28;20051;-61
2023/07/14 03:27:28;;;;;;;7.28;4.20;;;;;;;18.41;97.70;101551.47;5079891;28;20051;-63
2023/07/14 03:29:56;;;;;;;7.78;4.43;;;;;;;18.39;97.60;101545.44;5095219;28;20048;-63
2023/07/14 03:32:24;;;;;;;8.57;4.32;;;;;;;18.39;97.24;101545.44;5096562;28;20055;-62
2023/07/14 03:34:52;;;;;;;9.02;4.45;;;;;;;18.38;97.38;101546.56;5096927;28;20479;-63
2023/07/14 03:37:20;;;;;;;8.85;4.32;;;;;;;18.38;97.54;101541.06;5096993;28;20076;-63
2023/07/14 03:39:48;;;;;;;8.40;4.35;;;;;;;18.39;97.63;101545.44;5079662;28;20052;-63
2023/07/14 03:42:15;;;;;;;9.85;4.53;;;;;;;18.38;97.64;101538.28;5113169;28;20046;-62
2023/07/14 03:44:44;;;;;;;8.85;4.60;;;;;;;18.37;97.73;101539.41;5096272;28;20088;-63
2023/07/14 03:47:12;;;;;;;7.60;4.05;;;;;;;18.37;97.53;101539.41;5096550;28;20488;-63
2023/07/14 03:49:40;;;;;;;6.53;4.38;;;;;;;18.35;97.76;101536.13;5114859;28;20100;-64
2023/07/14 03:52:08;;;;;;;11.55;4.88;;;;;;;18.34;97.94;101537.25;5095209;28;20491;-63
2023/07/14 03:54:36;;;;;;;9.75;4.53;;;;;;;18.34;97.87;101528.97;5113426;28;20487;-61
2023/07/14 03:57:05;;;;;;;12.68;4.47;;;;;;;18.35;97.55;101530.59;5113641;28;20048;-64
2023/07/14 03:59:33;;;;;;;7.82;4.32;;;;;;;18.35;97.09;101527.84;5096240;28;20055;-62
2023/07/14 04:02:01;;;;;;;8.95;4.97;;;;;;;18.34;96.82;101523.47;5092818;28;20046;-64
2023/07/14 04:04:30;;;;;;;10.90;4.82;;;;;;;18.31;96.86;101524.88;5093867;28;20052;-64
2023/07/14 04:07:02;;;;;;;10.15;4.68;;;;;;;18.24;97.26;101522.50;5094076;28;20065;-64
2023/07/14 04:09:30;;;;;;;8.88;5.00;;;;;;;18.23;97.62;101529.16;5095164;28;20055;-64
2023/07/14 04:11:58;;;;;;;8.45;4.00;;;;;;;18.24;97.72;101522.50;5094516;28;20055;-63
2023/07/14 04:14:25;;;;;;;10.25;4.90;;;;;;;18.26;97.59;101527.75;5075580;28;20059;-64
2023/07/14 04:16:53;;;;;;;7.82;4.35;;;;;;;18.26;97.15;101528.56;5094940;28;20048;-64
2023/07/14 04:19:21;;;;;;;9.48;4.60;;;;;;;18.27;97.48;101527.41;5077900;28;20144;-63
2023/07/14 04:21:49;;;;;;;8.32;4.22;;;;;;;18.30;97.41;101528.75;5105338;28;20120;-62
2023/07/14 04:24:17;;;;;;;8.02;4.32;;;;;;;18.30;97.15;101518.56;5096159;28;20564;-64
2023/07/14 04:26:45;;;;;;;8.00;4.28;;;;;;;18.31;97.19;101525.69;5091885;28;20055;-63
2023/07/14 04:29:13;;;;;;;11.75;5.10;;;;;;;18.30;97.25;101518.56;5094562;28;20047;-63
2023/07/14 04:31:41;;;;;;;9.30;5.22;;;;;;;18.28;97.46;101515.28;5061653;28;20043;-63
2023/07/14 04:34:09;;;;;;;7.90;4.78;;;;;;;18.29;97.45;101514.13;5094578;28;20048;-63
2023/07/14 04:36:40;;;;;;;8.02;4.05;;;;;;;18.31;97.23;101514.66;5084213;28;20095;-62
2023/07/14 04:39:11;;;;;;;11.13;5.05;;;;;;;18.29;97.00;101511.38;5100893;28;20489;-62
2023/07/14 04:41:40;;;;;;;7.97;4.55;;;;;;;18.29;97.05;101516.09;5109719;28;20071;-61
2023/07/14 04:44:12;;;;;;;9.77;4.97;;;;;;;18.30;97.38;101521.31;5091983;28;20124;-63
2023/07/14 04:46:41;;;;;;;9.65;5.57;;;;;;;18.29;97.50;101516.09;5106519;28;20036;-63
2023/07/14 04:49:09;;;;;;;10.77;4.88;;;;;;;18.29;97.57;101522.41;5097031;28;20119;-63
2023/07/14 04:51:38;;;;;;;7.75;4.85;;;;;;;18.35;97.24;101519.56;5087788;28;20122;-62
2023/07/14 04:54:06;;;;;;;7.80;4.13;;;;;;;18.37;97.04;101522.84;5093024;28;20468;-63
2023/07/14 04:56:35;;;;;;;10.52;5.43;;;;;;;18.35;97.08;101514.88;5093394;28;20091;-63
2023/07/14 04:59:05;;;;;;;9.27;4.32;;;;;;;18.34;97.16;101517.94;5118755;28;20055;-62
2023/07/14 05:01:32;;;;;;;10.02;4.55;;;;;;;18.37;97.33;101522.84;5101513;28;20048;-63
2023/07/14 05:04:01;;;;;;;8.32;4.90;;;;;;;18.40;96.79;101517.56;5082546;28;20042;-62
2023/07/14 05:06:28;;;;;;;8.70;4.93;;;;;;;18.41;96.57;101516.41;5097787;28;20044;-63
2023/07/14 05:08:56;;;;;;;8.65;4.55;;;;;;;18.43;96.34;101511.41;5117223;28;20043;-62
2023/07/14 05:11:24;;;;;;;8.32;4.38;;;;;;;18.45;96.44;101508.38;5083745;28;20067;-62
2023/07/14 05:13:53;;;;;;;7.97;4.43;;;;;;;18.45;96.35;101506.41;5098645;28;20512;-62
2023/07/14 05:16:21;;;;;;;7.97;4.45;;;;;;;18.45;96.53;101511.94;5123594;28;20040;-63
2023/07/14 05:18:49;;;;;;;7.88;4.35;;;;;;;18.46;96.22;101509.97;5108661;28;20043;-62
2023/07/14 05:21:18;;;;;;;8.43;4.10;;;;;;;18.52;95.39;101512.34;5125696;28;20091;-62
2023/07/14 05:23:46;;;;;;;10.07;4.18;;;;;;;18.53;95.53;101510.41;5121402;28;20043;-63
2023/07/14 05:26:13;;;;;;;8.70;4.05;;;;;;;18.51;95.26;101507.13;5110980;28;20149;-63
2023/07/14 05:28:42;;;;;;;8.25;4.28;;;;;;;18.55;94.71;101513.69;5129121;28;20091;-63
2023/07/14 05:31:12;;;;;;;8.18;4.38;;;;;;;18.53;95.07;101510.41;5108184;28;20172;-63
2023/07/14 05:33:40;;;;;;;6.07;3.45;;;;;;;18.57;94.03;101508.69;5117060;28;20138;-63
2023/07/14 05:36:08;;;;;;;8.43;3.95;;;;;;;18.62;93.90;101518.81;4717680;28;10000543;-62
2023/07/14 05:38:36;;;;;;;7.82;4.25;;;;;;;18.56;94.04;101508.97;5102146;28;20059;-63
2023/07/14 05:41:04;;;;;;;9.38;3.83;;;;;;;18.54;94.31;101512.03;5114247;28;20051;-64
2023/07/14 05:43:32;;;;;;;8.57;4.15;;;;;;;18.51;94.79;101520.94;5113759;28;20046;-64
2023/07/14 05:46:00;;;;;;;12.00;4.72;;;;;;;18.52;94.21;101517.06;5113609;28;20051;-63
2023/07/14 05:48:28;;;;;;;8.52;4.10;;;;;;;18.55;94.21;101508.16;5088916;28;20048;-62
2023/07/14 05:50:56;;;;;;;8.50;4.07;;;;;;;18.57;93.98;101514.19;5109145;28;20055;-64
2023/07/14 05:53:24;;;;;;;11.80;4.10;;;;;;;18.61;93.73;101506.13;5069266;28;20052;-61
2023/07/14 05:55:52;;;;;;;9.23;4.75;;;;;;;18.62;93.40;101502.25;5113716;28;20047;-63
2023/07/14 05:58:20;;;;;;;13.25;4.47;;;;;;;18.61;93.11;101500.59;5113080;28;20056;-61
2023/07/14 06:00:47;;;;;;;8.90;4.03;;;;;;;18.65;92.48;101504.38;5112860;28;20039;-64
2023/07/14 06:03:16;;;;;;;7.28;3.80;;;;;;;18.69;92.01;101503.47;5077903;28;20046;-63
2023/07/14 06:05:46;;;;;;;8.90;4.65;;;;;;;18.69;91.56;101502.66;5113522;28;20043;-63
2023/07/14 06:08:13;;;;;;;13.93;4.53;;;;;;;18.68;91.63;101504.56;5114115;28;20043;-64
2023/07/14 06:10:41;;;;;;;26.40;7.30;;;;;;;18.66;91.30;101504.06;5113536;28;20725;-62
2023/07/14 06:13:09;;;;;;;23.98;7.88;;;;;;;18.68;91.17;101507.34;5074027;28;20097;-62
2023/07/14 06:15:37;;;;;;;26.75;8.15;;;;;;;18.73;90.86;101512.75;5088049;28;20059;-62
2023/07/14 06:18:05;;;;;;;28.00;8.98;;;;;;;18.80;90.66;101508.81;5111881;27;20058;-63
2023/07/14 06:20:33;;;;;;;17.35;5.72;;;;;;;18.81;89.90;101508.50;5095245;28;20043;-64
2023/07/14 06:23:02;;;;;;;28.35;8.27;;;;;;;18.91;89.76;101513.81;5092080;28;20492;-62
2023/07/14 06:25:30;;;;;;;15.73;5.55;;;;;;;18.95;89.14;101511.25;5092915;28;20047;-64
2023/07/14 06:27:58;;;;;;;14.85;5.22;;;;;;;18.93;88.58;101508.81;5094595;28;20047;-62
2023/07/14 06:30:26;;;;;;;13.70;4.63;;;;;;;18.86;88.75;101507.59;5111096;28;20096;-64
2023/07/14 06:32:54;;;;;;;14.15;4.60;;;;;;;18.84;88.76;101507.09;5110837;28;20519;-62
2023/07/14 06:35:23;;;;;;;10.68;4.63;;;;;;;18.84;87.18;101504.31;5093516;28;20541;-62
2023/07/14 06:37:51;;;;;;;8.00;3.75;;;;;;;18.73;87.08;101501.72;5112476;28;20510;-63
2023/07/14 06:40:20;;;;;;;11.00;4.18;;;;;;;18.81;88.57;101499.38;5112557;28;20055;-62
2023/07/14 06:42:48;;;;;;;13.00;4.40;;;;;;;18.88;87.70;101505.31;5113813;28;20059;-61
2023/07/14 06:45:17;;;;;;;8.27;4.50;;;;;;;18.87;87.12;101503.69;5095103;28;20043;-62
2023/07/14 06:47:44;;;;;;;10.10;4.05;;;;;;;18.83;87.12;101503.50;5098931;28;20048;-62
2023/07/14 06:50:13;;;;;;;11.07;4.00;;;;;;;18.83;87.23;101502.66;5097213;28;20101;-63
2023/07/14 06:52:40;;;;;;;12.88;4.30;;;;;;;18.85;87.33;101500.41;5097980;28;20069;-62
2023/07/14 06:55:09;;;;;;;12.40;4.65;;;;;;;18.87;85.70;101498.19;5115912;28;20047;-62
2023/07/14 06:57:38;;;;;;;8.20;3.55;;;;;;;18.80;85.50;101492.25;5097587;28;20088;-64
2023/07/14 07:00:12;;;;;;;12.60;3.90;;;;;;;18.96;86.73;101495.53;5115830;28;20054;-61
2023/07/14 07:02:40;;;;;;;7.05;3.20;;;;;;;18.97;85.72;101497.94;5103332;28;20391;-62
2023/07/14 07:05:10;;;;;;;9.57;3.75;;;;;;;19.02;85.25;101500.59;5098099;28;20054;-61
2023/07/14 07:07:38;;;;;;;11.05;3.38;;;;;;;19.21;84.73;101496.91;5115636;28;20039;-62
2023/07/14 07:10:07;;;;;;;9.65;3.85;;;;;;;19.20;83.55;101498.03;5115744;28;20059;-62
2023/07/14 07:12:35;;;;;;;7.90;3.28;;;;;;;19.23;82.81;101489.94;5096314;28;20043;-62
2023/07/14 07:15:03;;;;;;;10.48;3.92;;;;;;;19.22;83.21;101484.72;5077422;28;20075;-60
2023/07/14 07:17:31;;;;;;;7.43;3.70;;;;;;;19.11;82.30;101476.66;5077209;28;20048;-62
2023/07/14 07:19:59;;;;;;;8.35;3.80;;;;;;;19.08;83.22;101482.00;5095029;28;20113;-61
2023/07/14 07:22:27;;;;;;;7.38;3.45;;;;;;;19.13;82.40;101482.69;5065382;28;20048;-62
2023/07/14 07:24:55;;;;;;;7.53;3.25;;;;;;;19.12;82.84;101481.06;5095486;28;20044;-61
2023/07/14 07:27:23;;;;;;;9.35;3.65;;;;;;;19.11;82.26;101475.84;5096200;28;20476;-62
2023/07/14 07:29:50;;;;;;;8.15;3.28;;;;;;;19.15;82.54;101472.16;5094203;28;20040;-61
2023/07/14 07:32:18;;;;;;;12.32;3.97;;;;;;;19.01;80.52;101479.66;5097735;28;20048;-63
2023/07/14 07:34:47;;;;;;;8.68;3.72;;;;;;;18.88;80.73;101474.94;5113074;28;20051;-63
2023/07/14 07:37:15;;;;;;;11.43;3.85;;;;;;;18.83;81.52;101475.06;5097174;28;20047;-61
2023/07/14 07:39:42;;;;;;;8.57;4.55;;;;;;;18.78;81.59;101472.41;5097311;28;20055;-61
2023/07/14 07:42:11;;;;;;;7.57;3.60;;;;;;;18.79;81.64;101469.34;5096497;28;20047;-63
2023/07/14 07:44:39;;;;;;;8.68;3.70;;;;;;;18.86;81.24;101474.47;5115027;28;20059;-63
2023/07/14 07:47:08;;;;;;;7.75;3.78;;;;;;;18.91;80.95;101477.13;5115473;27;20411;-63
2023/07/14 07:49:36;;;;;;;7.25;3.15;;;;;;;18.94;80.58;101474.53;5115509;28;20047;-62
2023/07/14 07:52:04;;;;;;;8.73;3.30;;;;;;;18.97;79.16;101464.81;5115073;28;20036;-62
2023/07/14 07:54:32;;;;;;;7.72;3.67;;;;;;;19.01;78.64;101457.56;5113445;28;20049;-61
2023/07/14 07:57:00;;;;;;;6.53;3.00;;;;;;;19.08;78.60;101451.63;5111806;28;20040;-62
2023/07/14 07:59:28;;;;;;;6.05;3.50;;;;;;;19.16;79.32;101445.34;5077487;28;20395;-62
2023/07/14 08:01:56;;;;;;;7.97;3.45;;;;;;;19.22;79.51;101449.63;5068716;28;20051;-64
2023/07/14 08:04:24;;;;;;;7.78;3.10;;;;;;;19.29;79.30;101455.56;5063151;28;20053;-64
2023/07/14 08:06:52;;;;;;;9.38;3.25;;;;;;;19.34;79.40;101451.84;5097288;28;20044;-63
2023/07/14 08:09:20;;;;;;;8.70;3.28;;;;;;;19.39;77.98;101448.16;5115981;28;20043;-65
2023/07/14 08:11:48;;;;;;;6.70;3.35;;;;;;;19.44;77.64;101448.03;5098435;28;20092;-61
2023/07/14 08:14:18;;;;;;;7.03;3.65;;;;;;;19.43;76.89;101447.19;5115719;28;20533;-63
2023/07/14 08:16:46;;;;;;;6.35;3.13;;;;;;;19.41;76.42;101438.44;5096928;28;20040;-62
2023/07/14 08:19:14;;;;;;;6.80;2.90;;;;;;;19.40;77.09;101439.53;5080670;28;20510;-62
2023/07/14 08:21:42;;;;;;;5.65;2.92;;;;;;;19.44;77.48;101443.31;5076723;28;20044;-62
2023/07/14 08:24:10;;;;;;;5.57;2.90;;;;;;;19.46;76.75;101443.81;5095688;28;20123;-63
2023/07/14 08:26:39;;;;;;;6.47;3.10;;;;;;;19.49;76.93;101448.72;5100289;28;20040;-61
2023/07/14 08:29:08;;;;;;;5.63;3.03;;;;;;;19.49;75.84;101443.19;5108537;28;20055;-63
2023/07/14 08:31:36;;;;;;;4.68;2.80;;;;;;;19.53;75.21;101438.69;5116136;28;20058;-62
2023/07/14 08:34:04;;;;;;;5.53;2.80;;;;;;;19.55;74.46;101444.72;5117781;28;20055;-62
2023/07/14 08:36:32;;;;;;;7.45;3.28;;;;;;;19.61;74.50;101445.41;5128210;28;20384;-64
2023/07/14 08:39:00;;;;;;;5.72;2.90;;;;;;;19.64;74.36;101452.25;5124122;28;20123;-61
2023/07/14 08:41:33;;;;;;;7.10;3.42;;;;;;;19.64;73.87;101452.25;5099564;28;20100;-61
2023/07/14 08:44:04;;;;;;;6.20;2.78;;;;;;;19.63;72.31;101447.88;5066980;28;20048;-61
2023/07/14 08:46:43;;;;;;;6.07;2.92;;;;;;;19.66;73.61;101447.22;5118688;28;20044;-61
2023/07/14 08:49:25;;;;;;;7.25;3.00;;;;;;;19.66;72.01;101450.78;5101284;28;20056;-63
2023/07/14 08:52:35;;;;;;;5.93;3.20;;;;;;;19.63;72.29;101443.13;5116964;28;20047;-61
2023/07/14 08:55:03;;;;;;;3.72;2.60;;;;;;;19.66;71.95;101442.50;5080068;28;20056;-62
2023/07/14 08:57:38;;;;;;;4.82;2.50;;;;;;;19.66;70.79;101444.47;5097882;28;20537;-62
2023/07/14 09:00:09;;;;;;;7.15;3.00;;;;;;;19.68;69.73;101445.00;5063708;28;20070;-62
2023/07/14 09:02:51;;;;;;;5.00;2.78;;;;;;;19.70;69.87;101442.72;5064181;28;20153;-62
2023/07/14 09:05:28;;;;;;;6.45;2.75;;;;;;;19.74;69.73;101427.13;5104454;28;20120;-62
2023/07/14 09:07:56;;;;;;;5.95;3.28;;;;;;;19.77;69.51;101423.72;5117536;28;20051;-64
2023/07/14 09:10:36;;;;;;;6.00;3.05;;;;;;;19.84;69.26;101420.53;5093699;28;20130;-64
2023/07/14 09:13:13;;;;;;;7.50;3.17;;;;;;;19.86;68.06;101421.84;5098336;28;20039;-63
2023/07/14 09:15:41;;;;;;;9.13;3.33;;;;;;;19.94;67.64;101421.09;5103250;28;20115;-62
2023/07/14 09:18:15;;;;;;;6.32;2.80;;;;;;;20.03;66.94;101418.34;5074736;28;20048;-61
2023/07/14 09:21:01;;;;;;;8.95;3.08;;;;;;;20.07;67.73;101419.34;5127949;28;20118;-62
2023/07/14 09:24:03;;;;;;;6.82;2.83;;;;;;;20.10;68.98;101412.38;5130232;28;20118;-65
2023/07/14 09:26:40;;;;;;;5.28;2.95;;;;;;;20.12;68.33;101416.44;5101855;28;20126;-62
2023/07/14 09:29:16;;;;;;;6.75;3.00;;;;;;;20.19;67.40;101416.00;5117698;28;20039;-63
2023/07/14 09:31:56;;;;;;;4.95;2.38;;;;;;;20.23;67.63;101417.00;5099891;28;20495;-63
2023/07/14 09:34:29;;;;;;;6.50;3.08;;;;;;;20.26;66.60;101410.00;5116766;28;20047;-62
2023/07/14 09:36:57;;;;;;;7.80;3.10;;;;;;;20.30;66.79;101410.97;5099991;28;20047;-64
2023/07/14 09:39:30;;;;;;;6.65;2.70;;;;;;;20.33;68.12;101408.41;5116407;28;20073;-62
2023/07/14 09:42:00;;;;;;;6.28;2.70;;;;;;;20.38;68.05;101402.72;5098887;28;20047;-61
2023/07/14 09:44:29;;;;;;;9.73;3.50;;;;;;;20.41;68.26;101402.06;5079045;28;20077;-61
2023/07/14 09:47:02;;;;;;;7.28;3.22;;;;;;;20.46;68.81;101400.31;5100973;28;20066;-63
2023/07/14 09:49:34;;;;;;;3.83;2.65;;;;;;;20.49;69.35;101391.34;5080829;28;20056;-63
2023/07/14 09:52:10;;;;;;;7.32;3.22;;;;;;;20.52;69.11;101390.72;5097930;28;20039;-63
2023/07/14 09:55:11;;;;;;;5.10;3.25;;;;;;;20.47;69.76;101391.69;5116193;28;20053;-63
2023/07/14 09:57:43;;;;;;;7.28;3.53;;;;;;;20.48;69.92;101384.19;5079482;28;20044;-60
2023/07/14 10:00:27;;;;;;;7.10;2.95;;;;;;;20.53;69.20;101382.09;5097130;28;20052;-63
2023/07/14 10:03:06;;;;;;;6.15;3.50;;;;;;;20.58;69.47;101378.38;5079259;28;20043;-61
2023/07/14 10:05:51;;;;;;;9.23;3.75;;;;;;;20.61;70.05;101374.97;5096923;28;20323;-62
2023/07/14 10:08:36;;;;;;;10.32;4.00;;;;;;;20.68;70.16;101377.25;5103982;28;20486;-63
2023/07/14 10:11:25;;;;;;;7.20;3.20;;;;;;;20.73;69.93;101366.03;5105773;28;20493;-61
2023/07/14 10:14:17;;;;;;;5.43;3.08;;;;;;;20.78;70.00;101368.63;5045222;28;20056;-62
2023/07/14 10:16:46;;;;;;;6.95;3.13;;;;;;;20.85;69.54;101353.19;5095621;28;20063;-62
2023/07/14 10:19:20;;;;;;;8.68;3.42;;;;;;;20.94;68.62;101346.81;5078422;28;20047;-62
2023/07/14 10:21:53;;;;;;;5.43;2.95;;;;;;;20.95;68.31;101343.75;5090090;28;20051;-61
2023/07/14 10:24:23;;;;;;;7.65;3.38;;;;;;;20.94;67.74;101338.50;5111093;28;20043;-63
2023/07/14 10:26:57;;;;;;;5.50;3.33;;;;;;;20.91;68.59;101334.44;5096504;28;20402;-63
2023/07/14 10:29:27;;;;;;;7.55;3.00;;;;;;;20.92;68.33;101338.03;5116545;28;20043;-62
2023/07/14 10:32:06;;;;;;;6.15;2.90;;;;;;;20.92;68.49;101336.06;5097789;28;20055;-61
2023/07/14 10:34:43;;;;;;;7.45;3.28;;;;;;;20.93;67.95;101323.03;5115736;28;20047;-63
2023/07/14 10:37:24;;;;;;;10.02;3.60;;;;;;;20.94;68.26;101319.13;5115612;28;20043;-62
2023/07/14 10:40:24;;;;;;;8.27;3.40;;;;;;;20.93;67.99;101317.50;5115278;28;20115;-63
2023/07/14 10:43:03;;;;;;;4.68;2.80;;;;;;;20.94;67.67;101319.94;5083135;28;20058;-63
2023/07/14 10:45:32;;;;;;;9.02;3.53;;;;;;;20.96;66.24;101325.16;5114439;28;20039;-62
2023/07/14 10:48:06;;;;;;;5.80;2.80;;;;;;;20.98;66.41;101326.47;5114867;28;20048;-63
2023/07/14 10:51:10;;;;;;;6.13;2.92;;;;;;;21.03;66.53;101317.16;5105450;28;20044;-61
2023/07/14 10:53:46;;;;;;;9.77;3.13;;;;;;;21.05;66.89;101312.13;5046182;28;20097;-62
2023/07/14 10:56:26;;;;;;;5.10;2.60;;;;;;;21.06;67.25;101297.13;5060439;28;20043;-63
2023/07/14 10:59:02;;;;;;;5.63;2.97;;;;;;;21.05;67.57;101301.03;5096034;28;20055;-62
2023/07/14 11:01:35;;;;;;;5.03;2.60;;;;;;;21.07;68.01;101296.00;5080854;28;20059;-61
2023/07/14 11:04:33;;;;;;;8.48;3.75;;;;;;;21.07;67.92;101296.00;5097515;28;20398;-62
2023/07/14 11:07:02;;;;;;;9.80;3.35;;;;;;;21.04;67.71;101302.97;5115656;28;20044;-62
2023/07/14 11:09:30;;;;;;;6.07;3.28;;;;;;;21.02;67.64;101293.34;5064393;28;20411;-62
2023/07/14 11:12:25;;;;;;;6.95;3.33;;;;;;;20.98;67.89;101295.16;5077650;28;20408;-62
2023/07/14 11:15:11;;;;;;;8.63;3.40;;;;;;;20.96;67.94;101294.69;5093715;28;20131;-62
2023/07/14 11:17:51;;;;;;;7.72;3.40;;;;;;;20.98;68.13;101297.94;5091269;28;20056;-63
2023/07/14 11:20:33;;;;;;;9.45;3.15;;;;;;;20.99;68.16;101294.03;5095417;28;20479;-63
2023/07/14 11:23:27;;;;;;;10.77;3.35;;;;;;;21.01;67.88;101281.47;5102293;28;20043;-63
2023/07/14 11:26:22;;;;;;;5.85;3.15;;;;;;;21.08;68.08;101275.44;5098090;28;20552;-62
2023/07/14 11:29:00;;;;;;;7.07;3.10;;;;;;;21.15;67.60;101256.34;5098598;28;20180;-65
2023/07/14 11:31:34;;;;;;;9.07;3.15;;;;;;;21.21;67.65;101263.38;5065090;28;20107;-63
2023/07/14 11:34:21;;;;;;;5.85;2.92;;;;;;;21.30;67.43;101254.19;5115517;28;20039;-62
2023/07/14 11:37:11;;;;;;;7.35;3.10;;;;;;;21.37;66.75;101243.41;5068267;28;20165;-62
2023/07/14 11:39:51;;;;;;;6.75;2.95;;;;;;;21.38;66.46;101218.16;5119932;28;20175;-62
2023/07/14 11:42:33;;;;;;;6.50;3.20;;;;;;;21.37;65.56;101213.72;5103205;28;20051;-63
2023/07/14 11:45:05;;;;;;;6.72;3.08;;;;;;;21.37;65.47;101212.94;5109163;28;20475;-62
2023/07/14 11:47:33;;;;;;;6.97;2.80;;;;;;;21.36;65.86;101219.59;5104101;28;20047;-63